sensor_id;sensor_type;location;lat;lon;timestamp;P1;durP1;ratioP1;P2;durP2;ratioP2
43996;SDS011;34318;45.818;15.964;2022-10-22T00:00:47;10.70;;;6.25;;
43996;SDS011;34318;45.818;15.964;2022-10-22T00:03:15;6.70;;;5.70;;
43996;SDS011;34318;45.818;15.964;2022-10-22T00:05:42;7.43;;;5.43;;
43996;SDS011;34318;45.818;15.964;2022-10-22T00:08:09;8.05;;;5.50;;
43996;SDS011;34318;45.818;15.964;2022-10-22T00:10:37;8.38;;;5.22;;
43996;SDS011;34318;45.818;15.964;2022-10-22T00:13:04;6.25;;;5.63;;
43996;SDS011;34318;45.818;15.964;2022-10-22T00:15:31;5.20;;;4.70;;
43996;SDS011;34318;45.818;15.964;2022-10-22T00:17:58;7.25;;;5.72;;
43996;SDS011;34318;45.818;15.964;2022-10-22T00:20:26;8.77;;;5.30;;
43996;SDS011;34318;45.818;15.964;2022-10-22T00:22:53;6.47;;;4.97;;
43996;SDS011;34318;45.818;15.964;2022-10-22T00:25:20;7.88;;;5.32;;
43996;SDS011;34318;45.818;15.964;2022-10-22T00:27:47;7.85;;;5.15;;
43996;SDS011;34318;45.818;15.964;2022-10-22T00:30:14;6.72;;;5.25;;
43996;SDS011;34318;45.818;15.964;2022-10-22T00:32:41;6.50;;;5.38;;
43996;SDS011;34318;45.818;15.964;2022-10-22T00:35:09;8.77;;;5.53;;
43996;SDS011;34318;45.818;15.964;2022-10-22T00:37:36;7.20;;;4.97;;
43996;SDS011;34318;45.818;15.964;2022-10-22T00:40:03;5.63;;;5.05;;
43996;SDS011;34318;45.818;15.964;2022-10-22T00:42:31;6.28;;;5.68;;
43996;SDS011;34318;45.818;15.964;2022-10-22T00:47:32;5.75;;;4.85;;
43996;SDS011;34318;45.818;15.964;2022-10-22T00:50:01;6.07;;;4.93;;
43996;SDS011;34318;45.818;15.964;2022-10-22T00:52:34;7.30;;;5.07;;
43996;SDS011;34318;45.818;15.964;2022-10-22T00:55:02;6.40;;;4.93;;
43996;SDS011;34318;45.818;15.964;2022-10-22T00:57:30;5.68;;;4.90;;
43996;SDS011;34318;45.818;15.964;2022-10-22T00:59:57;7.47;;;4.93;;
43996;SDS011;34318;45.818;15.964;2022-10-22T01:02:24;6.63;;;5.18;;
43996;SDS011;34318;45.818;15.964;2022-10-22T01:04:52;8.32;;;4.70;;
43996;SDS011;34318;45.818;15.964;2022-10-22T01:07:20;6.82;;;4.85;;
43996;SDS011;34318;45.818;15.964;2022-10-22T01:09:59;5.25;;;4.75;;
43996;SDS011;34318;45.818;15.964;2022-10-22T01:20:47;7.53;;;5.05;;
43996;SDS011;34318;45.818;15.964;2022-10-22T01:25:48;5.93;;;5.00;;
43996;SDS011;34318;45.818;15.964;2022-10-22T01:28:20;6.70;;;5.60;;
43996;SDS011;34318;45.818;15.964;2022-10-22T01:30:49;5.85;;;5.25;;
43996;SDS011;34318;45.818;15.964;2022-10-22T01:33:20;5.50;;;4.75;;
43996;SDS011;34318;45.818;15.964;2022-10-22T01:35:48;6.00;;;5.22;;
43996;SDS011;34318;45.818;15.964;2022-10-22T01:38:17;6.15;;;4.85;;
43996;SDS011;34318;45.818;15.964;2022-10-22T01:40:45;7.55;;;5.10;;
43996;SDS011;34318;45.818;15.964;2022-10-22T01:43:13;7.78;;;4.78;;
43996;SDS011;34318;45.818;15.964;2022-10-22T01:45:44;6.00;;;4.38;;
43996;SDS011;34318;45.818;15.964;2022-10-22T01:48:21;7.60;;;5.28;;
43996;SDS011;34318;45.818;15.964;2022-10-22T01:58:57;4.93;;;4.40;;
43996;SDS011;34318;45.818;15.964;2022-10-22T02:01:36;6.90;;;4.43;;
43996;SDS011;34318;45.818;15.964;2022-10-22T02:04:11;6.60;;;5.03;;
43996;SDS011;34318;45.818;15.964;2022-10-22T02:06:41;5.63;;;4.38;;
43996;SDS011;34318;45.818;15.964;2022-10-22T02:09:10;7.32;;;4.65;;
43996;SDS011;34318;45.818;15.964;2022-10-22T02:11:40;6.78;;;4.75;;
43996;SDS011;34318;45.818;15.964;2022-10-22T02:14:07;5.57;;;5.00;;
43996;SDS011;34318;45.818;15.964;2022-10-22T02:16:44;5.30;;;4.70;;
43996;SDS011;34318;45.818;15.964;2022-10-22T02:19:14;5.47;;;4.65;;
43996;SDS011;34318;45.818;15.964;2022-10-22T02:21:43;6.15;;;5.05;;
43996;SDS011;34318;45.818;15.964;2022-10-22T02:24:10;5.95;;;4.65;;
43996;SDS011;34318;45.818;15.964;2022-10-22T02:26:39;6.53;;;4.95;;
43996;SDS011;34318;45.818;15.964;2022-10-22T02:29:13;7.10;;;4.72;;
43996;SDS011;34318;45.818;15.964;2022-10-22T02:31:42;4.85;;;4.45;;
43996;SDS011;34318;45.818;15.964;2022-10-22T02:34:10;6.10;;;4.75;;
43996;SDS011;34318;45.818;15.964;2022-10-22T02:36:40;7.65;;;4.90;;
43996;SDS011;34318;45.818;15.964;2022-10-22T02:39:14;4.28;;;3.95;;
43996;SDS011;34318;45.818;15.964;2022-10-22T02:41:42;4.50;;;4.10;;
43996;SDS011;34318;45.818;15.964;2022-10-22T02:44:09;5.47;;;4.10;;
43996;SDS011;34318;45.818;15.964;2022-10-22T02:46:37;5.28;;;4.30;;
43996;SDS011;34318;45.818;15.964;2022-10-22T02:49:05;4.78;;;4.38;;
43996;SDS011;34318;45.818;15.964;2022-10-22T02:51:32;4.97;;;4.57;;
43996;SDS011;34318;45.818;15.964;2022-10-22T02:54:00;4.53;;;4.10;;
43996;SDS011;34318;45.818;15.964;2022-10-22T02:56:27;5.78;;;4.50;;
43996;SDS011;34318;45.818;15.964;2022-10-22T02:58:54;4.50;;;4.07;;
43996;SDS011;34318;45.818;15.964;2022-10-22T03:01:22;4.57;;;4.18;;
43996;SDS011;34318;45.818;15.964;2022-10-22T03:03:49;5.35;;;4.47;;
43996;SDS011;34318;45.818;15.964;2022-10-22T03:06:16;9.23;;;5.32;;
43996;SDS011;34318;45.818;15.964;2022-10-22T03:08:44;5.53;;;4.30;;
43996;SDS011;34318;45.818;15.964;2022-10-22T03:11:11;4.90;;;4.03;;
43996;SDS011;34318;45.818;15.964;2022-10-22T03:13:38;6.68;;;4.90;;
43996;SDS011;34318;45.818;15.964;2022-10-22T03:16:09;5.72;;;4.82;;
43996;SDS011;34318;45.818;15.964;2022-10-22T03:18:36;4.57;;;4.18;;
43996;SDS011;34318;45.818;15.964;2022-10-22T03:21:05;4.75;;;4.28;;
43996;SDS011;34318;45.818;15.964;2022-10-22T03:23:33;5.75;;;4.38;;
43996;SDS011;34318;45.818;15.964;2022-10-22T03:26:01;5.03;;;4.45;;
43996;SDS011;34318;45.818;15.964;2022-10-22T03:28:28;5.00;;;3.78;;
43996;SDS011;34318;45.818;15.964;2022-10-22T03:30:55;5.20;;;4.20;;
43996;SDS011;34318;45.818;15.964;2022-10-22T03:33:23;4.60;;;4.20;;
43996;SDS011;34318;45.818;15.964;2022-10-22T03:35:50;5.32;;;4.63;;
43996;SDS011;34318;45.818;15.964;2022-10-22T03:38:17;4.72;;;4.00;;
43996;SDS011;34318;45.818;15.964;2022-10-22T03:40:44;4.93;;;4.43;;
43996;SDS011;34318;45.818;15.964;2022-10-22T03:43:12;4.40;;;3.92;;
43996;SDS011;34318;45.818;15.964;2022-10-22T03:45:39;5.90;;;4.38;;
43996;SDS011;34318;45.818;15.964;2022-10-22T03:48:06;4.10;;;3.70;;
43996;SDS011;34318;45.818;15.964;2022-10-22T03:50:34;5.72;;;3.80;;
43996;SDS011;34318;45.818;15.964;2022-10-22T03:53:01;4.93;;;4.18;;
43996;SDS011;34318;45.818;15.964;2022-10-22T03:55:28;4.50;;;3.88;;
43996;SDS011;34318;45.818;15.964;2022-10-22T03:57:55;5.18;;;4.05;;
43996;SDS011;34318;45.818;15.964;2022-10-22T04:00:22;4.93;;;4.10;;
43996;SDS011;34318;45.818;15.964;2022-10-22T04:02:49;4.22;;;3.78;;
43996;SDS011;34318;45.818;15.964;2022-10-22T04:05:17;5.68;;;3.88;;
43996;SDS011;34318;45.818;15.964;2022-10-22T04:07:44;4.50;;;3.80;;
43996;SDS011;34318;45.818;15.964;2022-10-22T04:10:11;4.55;;;4.10;;
43996;SDS011;34318;45.818;15.964;2022-10-22T04:12:38;5.40;;;3.92;;
43996;SDS011;34318;45.818;15.964;2022-10-22T04:15:06;4.95;;;4.05;;
43996;SDS011;34318;45.818;15.964;2022-10-22T04:17:34;4.38;;;3.97;;
43996;SDS011;34318;45.818;15.964;2022-10-22T04:20:02;4.97;;;3.95;;
43996;SDS011;34318;45.818;15.964;2022-10-22T04:22:31;4.97;;;3.75;;
43996;SDS011;34318;45.818;15.964;2022-10-22T04:24:58;4.15;;;3.70;;
43996;SDS011;34318;45.818;15.964;2022-10-22T04:27:28;4.47;;;3.70;;
43996;SDS011;34318;45.818;15.964;2022-10-22T04:29:56;4.18;;;3.78;;
43996;SDS011;34318;45.818;15.964;2022-10-22T04:32:24;3.75;;;3.45;;
43996;SDS011;34318;45.818;15.964;2022-10-22T04:34:51;5.15;;;3.90;;
43996;SDS011;34318;45.818;15.964;2022-10-22T04:37:19;5.13;;;3.78;;
43996;SDS011;34318;45.818;15.964;2022-10-22T04:39:46;4.10;;;3.55;;
43996;SDS011;34318;45.818;15.964;2022-10-22T04:42:13;4.97;;;4.20;;
43996;SDS011;34318;45.818;15.964;2022-10-22T04:44:40;4.10;;;3.70;;
43996;SDS011;34318;45.818;15.964;2022-10-22T04:47:07;6.13;;;4.13;;
43996;SDS011;34318;45.818;15.964;2022-10-22T04:49:35;4.38;;;3.97;;
43996;SDS011;34318;45.818;15.964;2022-10-22T04:52:02;4.63;;;4.22;;
43996;SDS011;34318;45.818;15.964;2022-10-22T04:54:29;4.78;;;3.63;;
43996;SDS011;34318;45.818;15.964;2022-10-22T04:56:58;3.88;;;3.40;;
43996;SDS011;34318;45.818;15.964;2022-10-22T04:59:25;4.25;;;3.83;;
43996;SDS011;34318;45.818;15.964;2022-10-22T05:01:53;6.65;;;3.70;;
43996;SDS011;34318;45.818;15.964;2022-10-22T05:04:20;5.15;;;3.67;;
43996;SDS011;34318;45.818;15.964;2022-10-22T05:06:48;4.10;;;3.17;;
43996;SDS011;34318;45.818;15.964;2022-10-22T05:09:16;4.72;;;3.65;;
43996;SDS011;34318;45.818;15.964;2022-10-22T05:11:45;3.78;;;3.42;;
43996;SDS011;34318;45.818;15.964;2022-10-22T05:14:17;5.38;;;3.97;;
43996;SDS011;34318;45.818;15.964;2022-10-22T05:16:44;4.70;;;3.25;;
43996;SDS011;34318;45.818;15.964;2022-10-22T05:19:18;4.57;;;3.42;;
43996;SDS011;34318;45.818;15.964;2022-10-22T05:21:46;3.95;;;3.42;;
43996;SDS011;34318;45.818;15.964;2022-10-22T05:24:13;4.00;;;3.70;;
43996;SDS011;34318;45.818;15.964;2022-10-22T05:26:40;4.22;;;3.60;;
43996;SDS011;34318;45.818;15.964;2022-10-22T05:29:07;3.88;;;3.40;;
43996;SDS011;34318;45.818;15.964;2022-10-22T05:31:34;3.70;;;3.40;;
43996;SDS011;34318;45.818;15.964;2022-10-22T05:34:02;3.92;;;3.38;;
43996;SDS011;34318;45.818;15.964;2022-10-22T05:36:29;4.30;;;3.90;;
43996;SDS011;34318;45.818;15.964;2022-10-22T05:38:56;3.97;;;3.20;;
43996;SDS011;34318;45.818;15.964;2022-10-22T05:41:24;3.47;;;3.17;;
43996;SDS011;34318;45.818;15.964;2022-10-22T05:43:55;4.45;;;3.42;;
43996;SDS011;34318;45.818;15.964;2022-10-22T05:46:23;4.95;;;3.70;;
43996;SDS011;34318;45.818;15.964;2022-10-22T05:48:51;3.92;;;3.45;;
43996;SDS011;34318;45.818;15.964;2022-10-22T05:51:18;5.40;;;3.80;;
43996;SDS011;34318;45.818;15.964;2022-10-22T05:53:49;5.45;;;3.72;;
43996;SDS011;34318;45.818;15.964;2022-10-22T05:56:16;3.72;;;3.38;;
43996;SDS011;34318;45.818;15.964;2022-10-22T05:58:44;7.30;;;3.90;;
43996;SDS011;34318;45.818;15.964;2022-10-22T06:01:15;5.70;;;3.90;;
43996;SDS011;34318;45.818;15.964;2022-10-22T06:03:43;6.15;;;4.03;;
43996;SDS011;34318;45.818;15.964;2022-10-22T06:06:14;8.18;;;3.65;;
43996;SDS011;34318;45.818;15.964;2022-10-22T06:08:44;6.60;;;4.18;;
43996;SDS011;34318;45.818;15.964;2022-10-22T06:11:11;8.85;;;4.47;;
43996;SDS011;34318;45.818;15.964;2022-10-22T06:13:39;10.45;;;4.72;;
43996;SDS011;34318;45.818;15.964;2022-10-22T06:16:06;7.32;;;4.55;;
43996;SDS011;34318;45.818;15.964;2022-10-22T06:18:33;5.68;;;4.28;;
43996;SDS011;34318;45.818;15.964;2022-10-22T06:21:07;9.85;;;4.70;;
43996;SDS011;34318;45.818;15.964;2022-10-22T06:23:35;6.68;;;4.30;;
43996;SDS011;34318;45.818;15.964;2022-10-22T06:26:02;8.77;;;4.60;;
43996;SDS011;34318;45.818;15.964;2022-10-22T06:28:30;8.63;;;4.45;;
43996;SDS011;34318;45.818;15.964;2022-10-22T06:30:57;12.85;;;4.82;;
43996;SDS011;34318;45.818;15.964;2022-10-22T06:33:25;14.10;;;5.32;;
43996;SDS011;34318;45.818;15.964;2022-10-22T06:35:53;14.48;;;5.45;;
43996;SDS011;34318;45.818;15.964;2022-10-22T06:38:20;11.98;;;5.47;;
43996;SDS011;34318;45.818;15.964;2022-10-22T06:40:47;11.32;;;5.50;;
43996;SDS011;34318;45.818;15.964;2022-10-22T06:43:17;9.90;;;4.78;;
43996;SDS011;34318;45.818;15.964;2022-10-22T06:45:44;8.32;;;5.13;;
43996;SDS011;34318;45.818;15.964;2022-10-22T06:48:12;10.27;;;4.63;;
43996;SDS011;34318;45.818;15.964;2022-10-22T06:50:39;7.38;;;4.97;;
43996;SDS011;34318;45.818;15.964;2022-10-22T06:53:07;6.82;;;5.00;;
43996;SDS011;34318;45.818;15.964;2022-10-22T06:55:34;8.23;;;3.67;;
43996;SDS011;34318;45.818;15.964;2022-10-22T06:58:01;9.60;;;4.97;;
43996;SDS011;34318;45.818;15.964;2022-10-22T07:00:28;7.90;;;4.15;;
43996;SDS011;34318;45.818;15.964;2022-10-22T07:02:56;8.88;;;5.15;;
43996;SDS011;34318;45.818;15.964;2022-10-22T07:05:25;13.90;;;5.10;;
43996;SDS011;34318;45.818;15.964;2022-10-22T07:07:52;6.78;;;4.97;;
43996;SDS011;34318;45.818;15.964;2022-10-22T07:10:19;9.82;;;4.47;;
43996;SDS011;34318;45.818;15.964;2022-10-22T07:12:46;8.70;;;5.43;;
43996;SDS011;34318;45.818;15.964;2022-10-22T07:15:13;8.27;;;5.20;;
43996;SDS011;34318;45.818;15.964;2022-10-22T07:17:40;6.75;;;4.50;;
43996;SDS011;34318;45.818;15.964;2022-10-22T07:20:08;9.73;;;4.70;;
43996;SDS011;34318;45.818;15.964;2022-10-22T07:22:35;10.02;;;4.88;;
43996;SDS011;34318;45.818;15.964;2022-10-22T07:25:03;9.13;;;4.63;;
43996;SDS011;34318;45.818;15.964;2022-10-22T07:27:32;9.27;;;4.50;;
43996;SDS011;34318;45.818;15.964;2022-10-22T07:29:59;6.18;;;4.15;;
43996;SDS011;34318;45.818;15.964;2022-10-22T07:32:27;14.50;;;5.20;;
43996;SDS011;34318;45.818;15.964;2022-10-22T07:34:54;6.32;;;4.65;;
43996;SDS011;34318;45.818;15.964;2022-10-22T07:37:21;9.07;;;5.57;;
43996;SDS011;34318;45.818;15.964;2022-10-22T07:39:49;13.13;;;6.30;;
43996;SDS011;34318;45.818;15.964;2022-10-22T07:42:16;7.03;;;4.55;;
43996;SDS011;34318;45.818;15.964;2022-10-22T07:44:43;8.70;;;5.57;;
43996;SDS011;34318;45.818;15.964;2022-10-22T07:47:10;8.88;;;5.38;;
43996;SDS011;34318;45.818;15.964;2022-10-22T07:49:37;8.43;;;5.63;;
43996;SDS011;34318;45.818;15.964;2022-10-22T07:52:05;11.65;;;6.07;;
43996;SDS011;34318;45.818;15.964;2022-10-22T07:54:33;9.32;;;5.28;;
43996;SDS011;34318;45.818;15.964;2022-10-22T07:57:00;8.05;;;5.13;;
43996;SDS011;34318;45.818;15.964;2022-10-22T07:59:27;10.68;;;5.13;;
43996;SDS011;34318;45.818;15.964;2022-10-22T08:01:54;9.32;;;5.13;;
43996;SDS011;34318;45.818;15.964;2022-10-22T08:04:21;11.23;;;5.53;;
43996;SDS011;34318;45.818;15.964;2022-10-22T08:06:50;8.93;;;5.60;;
43996;SDS011;34318;45.818;15.964;2022-10-22T08:09:17;10.18;;;5.53;;
43996;SDS011;34318;45.818;15.964;2022-10-22T08:11:44;7.18;;;5.07;;
43996;SDS011;34318;45.818;15.964;2022-10-22T08:14:12;5.82;;;4.93;;
43996;SDS011;34318;45.818;15.964;2022-10-22T08:16:39;9.60;;;4.90;;
43996;SDS011;34318;45.818;15.964;2022-10-22T08:19:06;7.20;;;6.15;;
43996;SDS011;34318;45.818;15.964;2022-10-22T08:21:33;7.55;;;5.07;;
43996;SDS011;34318;45.818;15.964;2022-10-22T08:24:01;7.47;;;4.70;;
43996;SDS011;34318;45.818;15.964;2022-10-22T08:26:28;8.23;;;4.40;;
43996;SDS011;34318;45.818;15.964;2022-10-22T08:28:55;7.78;;;4.95;;
43996;SDS011;34318;45.818;15.964;2022-10-22T08:31:22;6.00;;;4.70;;
43996;SDS011;34318;45.818;15.964;2022-10-22T08:33:49;10.15;;;5.30;;
43996;SDS011;34318;45.818;15.964;2022-10-22T08:36:17;8.65;;;4.72;;
43996;SDS011;34318;45.818;15.964;2022-10-22T08:38:44;8.90;;;4.72;;
43996;SDS011;34318;45.818;15.964;2022-10-22T08:41:12;7.80;;;4.90;;
43996;SDS011;34318;45.818;15.964;2022-10-22T08:48:42;6.63;;;5.20;;
43996;SDS011;34318;45.818;15.964;2022-10-22T08:51:16;8.52;;;4.97;;
43996;SDS011;34318;45.818;15.964;2022-10-22T08:56:22;6.22;;;5.05;;
43996;SDS011;34318;45.818;15.964;2022-10-22T08:58:52;6.75;;;4.63;;
43996;SDS011;34318;45.818;15.964;2022-10-22T09:01:21;7.15;;;4.35;;
43996;SDS011;34318;45.818;15.964;2022-10-22T09:03:51;5.50;;;4.47;;
43996;SDS011;34318;45.818;15.964;2022-10-22T09:06:21;6.13;;;4.60;;
43996;SDS011;34318;45.818;15.964;2022-10-22T09:08:49;8.10;;;4.93;;
43996;SDS011;34318;45.818;15.964;2022-10-22T09:13:45;8.68;;;5.20;;
43996;SDS011;34318;45.818;15.964;2022-10-22T09:16:19;8.20;;;4.57;;
43996;SDS011;34318;45.818;15.964;2022-10-22T09:18:58;7.63;;;5.13;;
43996;SDS011;34318;45.818;15.964;2022-10-22T09:26:28;9.60;;;4.80;;
43996;SDS011;34318;45.818;15.964;2022-10-22T09:28:58;11.80;;;4.70;;
43996;SDS011;34318;45.818;15.964;2022-10-22T09:31:26;13.95;;;5.28;;
43996;SDS011;34318;45.818;15.964;2022-10-22T09:33:54;9.48;;;5.15;;
43996;SDS011;34318;45.818;15.964;2022-10-22T09:36:22;8.80;;;5.30;;
43996;SDS011;34318;45.818;15.964;2022-10-22T09:38:50;8.15;;;4.75;;
43996;SDS011;34318;45.818;15.964;2022-10-22T09:41:18;11.30;;;5.55;;
43996;SDS011;34318;45.818;15.964;2022-10-22T09:43:46;7.57;;;4.60;;
43996;SDS011;34318;45.818;15.964;2022-10-22T09:46:18;11.68;;;5.20;;
43996;SDS011;34318;45.818;15.964;2022-10-22T09:48:50;9.55;;;5.60;;
43996;SDS011;34318;45.818;15.964;2022-10-22T09:51:21;7.40;;;4.85;;
43996;SDS011;34318;45.818;15.964;2022-10-22T09:53:56;7.63;;;5.07;;
43996;SDS011;34318;45.818;15.964;2022-10-22T09:56:25;9.43;;;5.88;;
43996;SDS011;34318;45.818;15.964;2022-10-22T09:58:54;9.95;;;6.10;;
43996;SDS011;34318;45.818;15.964;2022-10-22T10:01:29;9.95;;;5.20;;
43996;SDS011;34318;45.818;15.964;2022-10-22T10:06:24;9.63;;;4.50;;
43996;SDS011;34318;45.818;15.964;2022-10-22T10:08:52;7.95;;;4.70;;
43996;SDS011;34318;45.818;15.964;2022-10-22T10:11:25;7.07;;;4.88;;
43996;SDS011;34318;45.818;15.964;2022-10-22T10:17:24;10.48;;;5.22;;
43996;SDS011;34318;45.818;15.964;2022-10-22T10:30:16;9.77;;;4.90;;
43996;SDS011;34318;45.818;15.964;2022-10-22T10:32:50;8.70;;;4.95;;
43996;SDS011;34318;45.818;15.964;2022-10-22T10:40:44;8.15;;;4.78;;
43996;SDS011;34318;45.818;15.964;2022-10-22T10:43:14;6.95;;;4.28;;
43996;SDS011;34318;45.818;15.964;2022-10-22T10:45:50;11.18;;;5.00;;
43996;SDS011;34318;45.818;15.964;2022-10-22T10:48:24;9.48;;;5.45;;
43996;SDS011;34318;45.818;15.964;2022-10-22T10:50:58;13.45;;;5.18;;
43996;SDS011;34318;45.818;15.964;2022-10-22T11:06:30;11.15;;;5.10;;
43996;SDS011;34318;45.818;15.964;2022-10-22T11:09:06;11.88;;;5.35;;
43996;SDS011;34318;45.818;15.964;2022-10-22T11:11:37;5.75;;;4.57;;
43996;SDS011;34318;45.818;15.964;2022-10-22T11:14:10;9.82;;;4.78;;
43996;SDS011;34318;45.818;15.964;2022-10-22T11:16:44;9.98;;;5.30;;
43996;SDS011;34318;45.818;15.964;2022-10-22T11:19:22;13.63;;;5.60;;
43996;SDS011;34318;45.818;15.964;2022-10-22T11:22:16;11.73;;;5.07;;
43996;SDS011;34318;45.818;15.964;2022-10-22T11:25:02;9.90;;;4.82;;
43996;SDS011;34318;45.818;15.964;2022-10-22T11:27:44;7.85;;;5.22;;
43996;SDS011;34318;45.818;15.964;2022-10-22T11:30:17;9.40;;;4.88;;
43996;SDS011;34318;45.818;15.964;2022-10-22T11:32:46;15.25;;;5.45;;
43996;SDS011;34318;45.818;15.964;2022-10-22T11:35:15;8.45;;;4.93;;
43996;SDS011;34318;45.818;15.964;2022-10-22T11:40:21;29.80;;;15.55;;
43996;SDS011;34318;45.818;15.964;2022-10-22T11:45:49;169.15;;;75.70;;
43996;SDS011;34318;45.818;15.964;2022-10-22T11:48:21;360.83;;;225.05;;
43996;SDS011;34318;45.818;15.964;2022-10-22T11:50:56;434.95;;;334.67;;
43996;SDS011;34318;45.818;15.964;2022-10-22T11:55:52;442.23;;;357.75;;
43996;SDS011;34318;45.818;15.964;2022-10-22T12:08:44;258.35;;;197.63;;
43996;SDS011;34318;45.818;15.964;2022-10-22T12:11:13;248.60;;;195.93;;
43996;SDS011;34318;45.818;15.964;2022-10-22T12:21:37;210.80;;;170.38;;
43996;SDS011;34318;45.818;15.964;2022-10-22T12:24:04;203.85;;;155.68;;
43996;SDS011;34318;45.818;15.964;2022-10-22T12:26:32;199.52;;;159.60;;
43996;SDS011;34318;45.818;15.964;2022-10-22T12:29:01;197.90;;;156.93;;
43996;SDS011;34318;45.818;15.964;2022-10-22T12:31:29;164.63;;;130.80;;
43996;SDS011;34318;45.818;15.964;2022-10-22T12:34:00;169.23;;;138.23;;
43996;SDS011;34318;45.818;15.964;2022-10-22T12:36:28;153.18;;;115.38;;
43996;SDS011;34318;45.818;15.964;2022-10-22T12:39:00;98.88;;;75.40;;
43996;SDS011;34318;45.818;15.964;2022-10-22T12:41:32;93.05;;;69.60;;
43996;SDS011;34318;45.818;15.964;2022-10-22T12:44:00;86.90;;;68.25;;
43996;SDS011;34318;45.818;15.964;2022-10-22T12:46:28;92.53;;;69.00;;
43996;SDS011;34318;45.818;15.964;2022-10-22T12:49:00;91.22;;;67.43;;
43996;SDS011;34318;45.818;15.964;2022-10-22T12:51:27;70.05;;;56.20;;
43996;SDS011;34318;45.818;15.964;2022-10-22T12:53:56;72.22;;;55.08;;
43996;SDS011;34318;45.818;15.964;2022-10-22T12:56:31;65.68;;;49.85;;
43996;SDS011;34318;45.818;15.964;2022-10-22T12:59:18;62.08;;;50.05;;
43996;SDS011;34318;45.818;15.964;2022-10-22T13:01:47;62.65;;;46.30;;
43996;SDS011;34318;45.818;15.964;2022-10-22T13:07:02;57.85;;;46.72;;
43996;SDS011;34318;45.818;15.964;2022-10-22T13:09:39;62.78;;;48.63;;
43996;SDS011;34318;45.818;15.964;2022-10-22T13:12:07;53.05;;;42.55;;
43996;SDS011;34318;45.818;15.964;2022-10-22T13:14:42;52.57;;;37.30;;
43996;SDS011;34318;45.818;15.964;2022-10-22T13:17:17;49.33;;;39.35;;
43996;SDS011;34318;45.818;15.964;2022-10-22T13:19:46;48.63;;;39.78;;
43996;SDS011;34318;45.818;15.964;2022-10-22T13:25:04;56.08;;;39.13;;
43996;SDS011;34318;45.818;15.964;2022-10-22T13:32:48;55.83;;;44.08;;
43996;SDS011;34318;45.818;15.964;2022-10-22T13:35:16;62.38;;;46.03;;
43996;SDS011;34318;45.818;15.964;2022-10-22T13:37:46;66.95;;;44.80;;
43996;SDS011;34318;45.818;15.964;2022-10-22T13:40:13;58.63;;;45.08;;
43996;SDS011;34318;45.818;15.964;2022-10-22T13:42:41;60.60;;;45.17;;
43996;SDS011;34318;45.818;15.964;2022-10-22T13:45:09;58.30;;;42.90;;
43996;SDS011;34318;45.818;15.964;2022-10-22T13:47:36;55.78;;;43.05;;
43996;SDS011;34318;45.818;15.964;2022-10-22T13:50:03;55.97;;;42.08;;
43996;SDS011;34318;45.818;15.964;2022-10-22T13:52:35;51.38;;;42.83;;
43996;SDS011;34318;45.818;15.964;2022-10-22T13:57:46;58.65;;;42.97;;
43996;SDS011;34318;45.818;15.964;2022-10-22T14:00:15;58.40;;;42.55;;
43996;SDS011;34318;45.818;15.964;2022-10-22T14:02:43;58.60;;;42.53;;
43996;SDS011;34318;45.818;15.964;2022-10-22T14:05:11;55.70;;;41.47;;
43996;SDS011;34318;45.818;15.964;2022-10-22T14:07:39;56.20;;;41.22;;
43996;SDS011;34318;45.818;15.964;2022-10-22T14:10:17;54.00;;;40.38;;
43996;SDS011;34318;45.818;15.964;2022-10-22T14:12:48;60.60;;;40.97;;
43996;SDS011;34318;45.818;15.964;2022-10-22T14:15:20;58.60;;;42.13;;
43996;SDS011;34318;45.818;15.964;2022-10-22T14:17:51;58.13;;;43.17;;
43996;SDS011;34318;45.818;15.964;2022-10-22T14:20:24;71.45;;;45.60;;
43996;SDS011;34318;45.818;15.964;2022-10-22T14:22:52;63.58;;;43.17;;
43996;SDS011;34318;45.818;15.964;2022-10-22T14:25:21;55.85;;;42.58;;
43996;SDS011;34318;45.818;15.964;2022-10-22T14:27:48;67.93;;;50.05;;
43996;SDS011;34318;45.818;15.964;2022-10-22T14:30:19;56.35;;;42.45;;
43996;SDS011;34318;45.818;15.964;2022-10-22T14:32:47;52.00;;;40.15;;
43996;SDS011;34318;45.818;15.964;2022-10-22T14:35:16;52.85;;;39.63;;
43996;SDS011;34318;45.818;15.964;2022-10-22T14:37:43;51.15;;;42.60;;
43996;SDS011;34318;45.818;15.964;2022-10-22T14:40:11;55.65;;;41.85;;
43996;SDS011;34318;45.818;15.964;2022-10-22T14:42:40;55.95;;;42.50;;
43996;SDS011;34318;45.818;15.964;2022-10-22T14:45:11;56.80;;;41.60;;
43996;SDS011;34318;45.818;15.964;2022-10-22T14:47:39;56.25;;;40.97;;
43996;SDS011;34318;45.818;15.964;2022-10-22T14:50:07;52.70;;;39.72;;
43996;SDS011;34318;45.818;15.964;2022-10-22T14:52:34;56.72;;;39.83;;
43996;SDS011;34318;45.818;15.964;2022-10-22T14:55:01;49.90;;;39.55;;
43996;SDS011;34318;45.818;15.964;2022-10-22T14:57:29;50.90;;;35.70;;
43996;SDS011;34318;45.818;15.964;2022-10-22T14:59:56;47.70;;;36.42;;
43996;SDS011;34318;45.818;15.964;2022-10-22T15:02:24;46.05;;;36.55;;
43996;SDS011;34318;45.818;15.964;2022-10-22T15:04:55;44.05;;;34.85;;
43996;SDS011;34318;45.818;15.964;2022-10-22T15:07:32;46.95;;;36.85;;
43996;SDS011;34318;45.818;15.964;2022-10-22T15:10:02;48.45;;;37.83;;
43996;SDS011;34318;45.818;15.964;2022-10-22T15:12:47;50.00;;;36.97;;
43996;SDS011;34318;45.818;15.964;2022-10-22T15:15:18;46.92;;;37.05;;
43996;SDS011;34318;45.818;15.964;2022-10-22T15:18:03;51.58;;;37.72;;
43996;SDS011;34318;45.818;15.964;2022-10-22T15:20:31;48.53;;;34.80;;
43996;SDS011;34318;45.818;15.964;2022-10-22T15:23:02;48.53;;;35.55;;
43996;SDS011;34318;45.818;15.964;2022-10-22T15:25:43;47.20;;;37.00;;
43996;SDS011;34318;45.818;15.964;2022-10-22T15:28:11;44.80;;;34.97;;
43996;SDS011;34318;45.818;15.964;2022-10-22T15:31:01;46.63;;;34.75;;
43996;SDS011;34318;45.818;15.964;2022-10-22T15:33:29;46.25;;;36.45;;
43996;SDS011;34318;45.818;15.964;2022-10-22T15:35:56;48.47;;;35.03;;
43996;SDS011;34318;45.818;15.964;2022-10-22T15:38:27;38.97;;;32.80;;
43996;SDS011;34318;45.818;15.964;2022-10-22T15:41:03;38.70;;;32.35;;
43996;SDS011;34318;45.818;15.964;2022-10-22T15:43:35;46.38;;;33.13;;
43996;SDS011;34318;45.818;15.964;2022-10-22T15:46:16;45.80;;;33.80;;
43996;SDS011;34318;45.818;15.964;2022-10-22T15:48:45;40.13;;;32.33;;
43996;SDS011;34318;45.818;15.964;2022-10-22T15:51:15;39.53;;;31.42;;
43996;SDS011;34318;45.818;15.964;2022-10-22T15:53:42;43.55;;;32.28;;
43996;SDS011;34318;45.818;15.964;2022-10-22T15:56:11;37.55;;;30.30;;
43996;SDS011;34318;45.818;15.964;2022-10-22T15:58:40;43.63;;;29.48;;
43996;SDS011;34318;45.818;15.964;2022-10-22T16:01:12;39.92;;;30.13;;
43996;SDS011;34318;45.818;15.964;2022-10-22T16:03:41;46.67;;;30.95;;
43996;SDS011;34318;45.818;15.964;2022-10-22T16:06:09;38.83;;;29.73;;
43996;SDS011;34318;45.818;15.964;2022-10-22T16:08:43;36.40;;;29.05;;
43996;SDS011;34318;45.818;15.964;2022-10-22T16:11:14;37.38;;;30.65;;
43996;SDS011;34318;45.818;15.964;2022-10-22T16:13:51;41.17;;;30.77;;
43996;SDS011;34318;45.818;15.964;2022-10-22T16:16:19;45.13;;;30.10;;
43996;SDS011;34318;45.818;15.964;2022-10-22T16:18:47;40.67;;;31.40;;
43996;SDS011;34318;45.818;15.964;2022-10-22T16:21:18;39.85;;;31.30;;
43996;SDS011;34318;45.818;15.964;2022-10-22T16:23:46;40.42;;;28.45;;
43996;SDS011;34318;45.818;15.964;2022-10-22T16:26:14;35.33;;;27.83;;
43996;SDS011;34318;45.818;15.964;2022-10-22T16:28:42;40.85;;;29.50;;